sensor_id;sensor_type;location;lat;lon;timestamp;P1;durP1;ratioP1;P2;durP2;ratioP2
23573;SDS011;11965;53.640;10.050;2023-08-12T00:01:18;5.11;;;5.11;;
23573;SDS011;11965;53.640;10.050;2023-08-12T00:03:46;5.08;;;5.08;;
23573;SDS011;11965;53.640;10.050;2023-08-12T00:06:13;5.30;;;5.30;;
23573;SDS011;11965;53.640;10.050;2023-08-12T00:08:40;5.48;;;5.48;;
23573;SDS011;11965;53.640;10.050;2023-08-12T00:11:07;4.89;;;4.89;;
23573;SDS011;11965;53.640;10.050;2023-08-12T00:13:34;4.82;;;4.82;;
23573;SDS011;11965;53.640;10.050;2023-08-12T00:16:02;5.33;;;5.33;;
23573;SDS011;11965;53.640;10.050;2023-08-12T00:18:29;5.28;;;5.28;;
23573;SDS011;11965;53.640;10.050;2023-08-12T00:21:03;5.11;;;5.11;;
23573;SDS011;11965;53.640;10.050;2023-08-12T00:23:36;5.04;;;5.04;;
23573;SDS011;11965;53.640;10.050;2023-08-12T00:26:04;4.89;;;4.89;;
23573;SDS011;11965;53.640;10.050;2023-08-12T00:28:31;5.17;;;5.17;;
23573;SDS011;11965;53.640;10.050;2023-08-12T00:30:58;4.98;;;4.98;;
23573;SDS011;11965;53.640;10.050;2023-08-12T00:33:27;4.76;;;4.76;;
23573;SDS011;11965;53.640;10.050;2023-08-12T00:35:54;5.13;;;5.13;;
23573;SDS011;11965;53.640;10.050;2023-08-12T00:38:21;4.78;;;4.78;;
23573;SDS011;11965;53.640;10.050;2023-08-12T00:40:47;5.19;;;5.19;;
23573;SDS011;11965;53.640;10.050;2023-08-12T00:43:15;5.16;;;5.16;;
23573;SDS011;11965;53.640;10.050;2023-08-12T00:45:42;4.95;;;4.95;;
23573;SDS011;11965;53.640;10.050;2023-08-12T00:48:10;4.94;;;4.94;;
23573;SDS011;11965;53.640;10.050;2023-08-12T00:50:38;4.89;;;4.89;;
23573;SDS011;11965;53.640;10.050;2023-08-12T00:53:08;4.80;;;4.80;;
23573;SDS011;11965;53.640;10.050;2023-08-12T00:55:41;4.92;;;4.92;;
23573;SDS011;11965;53.640;10.050;2023-08-12T00:58:09;4.78;;;4.78;;
23573;SDS011;11965;53.640;10.050;2023-08-12T01:00:40;4.83;;;4.83;;
23573;SDS011;11965;53.640;10.050;2023-08-12T01:03:07;4.86;;;4.86;;
23573;SDS011;11965;53.640;10.050;2023-08-12T01:05:34;4.69;;;4.69;;
23573;SDS011;11965;53.640;10.050;2023-08-12T01:08:02;5.28;;;5.28;;
23573;SDS011;11965;53.640;10.050;2023-08-12T01:10:32;4.88;;;4.88;;
23573;SDS011;11965;53.640;10.050;2023-08-12T01:13:06;4.79;;;4.79;;
23573;SDS011;11965;53.640;10.050;2023-08-12T01:15:43;4.68;;;4.68;;
23573;SDS011;11965;53.640;10.050;2023-08-12T01:18:11;4.86;;;4.86;;
23573;SDS011;11965;53.640;10.050;2023-08-12T01:20:40;4.88;;;4.88;;
23573;SDS011;11965;53.640;10.050;2023-08-12T01:23:12;4.95;;;4.95;;
23573;SDS011;11965;53.640;10.050;2023-08-12T01:25:40;4.69;;;4.69;;
23573;SDS011;11965;53.640;10.050;2023-08-12T01:28:07;4.88;;;4.88;;
23573;SDS011;11965;53.640;10.050;2023-08-12T01:30:36;4.78;;;4.78;;
23573;SDS011;11965;53.640;10.050;2023-08-12T01:33:18;4.68;;;4.68;;
23573;SDS011;11965;53.640;10.050;2023-08-12T01:35:53;4.95;;;4.95;;
23573;SDS011;11965;53.640;10.050;2023-08-12T01:38:28;4.99;;;4.99;;
23573;SDS011;11965;53.640;10.050;2023-08-12T01:41:06;4.76;;;4.76;;
23573;SDS011;11965;53.640;10.050;2023-08-12T01:43:44;4.72;;;4.72;;
23573;SDS011;11965;53.640;10.050;2023-08-12T01:46:11;4.83;;;4.83;;
23573;SDS011;11965;53.640;10.050;2023-08-12T01:48:38;4.77;;;4.77;;
23573;SDS011;11965;53.640;10.050;2023-08-12T01:51:05;5.35;;;5.35;;
23573;SDS011;11965;53.640;10.050;2023-08-12T01:53:33;4.80;;;4.80;;
23573;SDS011;11965;53.640;10.050;2023-08-12T01:56:00;4.76;;;4.76;;
23573;SDS011;11965;53.640;10.050;2023-08-12T01:58:27;4.93;;;4.93;;
23573;SDS011;11965;53.640;10.050;2023-08-12T02:00:54;4.90;;;4.90;;
23573;SDS011;11965;53.640;10.050;2023-08-12T02:03:20;5.08;;;5.08;;
23573;SDS011;11965;53.640;10.050;2023-08-12T02:05:47;5.14;;;5.14;;
23573;SDS011;11965;53.640;10.050;2023-08-12T02:08:14;4.94;;;4.94;;
23573;SDS011;11965;53.640;10.050;2023-08-12T02:10:42;5.00;;;5.00;;
23573;SDS011;11965;53.640;10.050;2023-08-12T02:13:09;4.75;;;4.75;;
23573;SDS011;11965;53.640;10.050;2023-08-12T02:15:36;5.11;;;5.11;;
23573;SDS011;11965;53.640;10.050;2023-08-12T02:18:04;4.59;;;4.59;;
23573;SDS011;11965;53.640;10.050;2023-08-12T02:20:31;4.67;;;4.67;;
23573;SDS011;11965;53.640;10.050;2023-08-12T02:23:00;4.88;;;4.88;;
23573;SDS011;11965;53.640;10.050;2023-08-12T02:25:28;5.01;;;5.01;;
23573;SDS011;11965;53.640;10.050;2023-08-12T02:27:56;4.89;;;4.89;;
23573;SDS011;11965;53.640;10.050;2023-08-12T02:30:23;5.16;;;5.16;;
23573;SDS011;11965;53.640;10.050;2023-08-12T02:32:50;5.26;;;5.26;;
23573;SDS011;11965;53.640;10.050;2023-08-12T02:35:17;4.77;;;4.77;;
23573;SDS011;11965;53.640;10.050;2023-08-12T02:37:44;5.07;;;5.07;;
23573;SDS011;11965;53.640;10.050;2023-08-12T02:40:11;5.00;;;5.00;;
23573;SDS011;11965;53.640;10.050;2023-08-12T02:42:38;5.29;;;5.29;;
23573;SDS011;11965;53.640;10.050;2023-08-12T02:45:07;5.09;;;5.09;;
23573;SDS011;11965;53.640;10.050;2023-08-12T02:47:34;5.16;;;5.16;;
23573;SDS011;11965;53.640;10.050;2023-08-12T02:50:01;4.92;;;4.92;;
23573;SDS011;11965;53.640;10.050;2023-08-12T02:52:28;4.88;;;4.88;;
23573;SDS011;11965;53.640;10.050;2023-08-12T02:54:54;5.06;;;5.06;;
23573;SDS011;11965;53.640;10.050;2023-08-12T02:57:21;4.73;;;4.73;;
23573;SDS011;11965;53.640;10.050;2023-08-12T02:59:48;5.02;;;5.02;;
23573;SDS011;11965;53.640;10.050;2023-08-12T03:02:16;5.09;;;5.09;;
23573;SDS011;11965;53.640;10.050;2023-08-12T03:04:43;5.22;;;5.22;;
23573;SDS011;11965;53.640;10.050;2023-08-12T03:07:10;5.01;;;5.01;;
23573;SDS011;11965;53.640;10.050;2023-08-12T03:09:37;4.88;;;4.88;;
23573;SDS011;11965;53.640;10.050;2023-08-12T03:12:04;5.18;;;5.18;;
23573;SDS011;11965;53.640;10.050;2023-08-12T03:14:32;4.95;;;4.95;;
23573;SDS011;11965;53.640;10.050;2023-08-12T03:17:00;4.83;;;4.83;;
23573;SDS011;11965;53.640;10.050;2023-08-12T03:19:29;5.11;;;5.11;;
23573;SDS011;11965;53.640;10.050;2023-08-12T03:21:57;5.20;;;5.20;;
23573;SDS011;11965;53.640;10.050;2023-08-12T03:24:24;4.94;;;4.94;;
23573;SDS011;11965;53.640;10.050;2023-08-12T03:26:51;4.89;;;4.89;;
23573;SDS011;11965;53.640;10.050;2023-08-12T03:29:17;5.15;;;5.15;;
23573;SDS011;11965;53.640;10.050;2023-08-12T03:31:45;4.88;;;4.88;;
23573;SDS011;11965;53.640;10.050;2023-08-12T03:34:13;4.92;;;4.92;;
23573;SDS011;11965;53.640;10.050;2023-08-12T03:36:44;5.05;;;5.05;;
23573;SDS011;11965;53.640;10.050;2023-08-12T03:39:14;4.84;;;4.84;;
23573;SDS011;11965;53.640;10.050;2023-08-12T03:41:41;5.10;;;5.10;;
23573;SDS011;11965;53.640;10.050;2023-08-12T03:44:08;4.79;;;4.79;;
23573;SDS011;11965;53.640;10.050;2023-08-12T03:46:36;5.07;;;5.07;;
23573;SDS011;11965;53.640;10.050;2023-08-12T03:49:03;4.84;;;4.84;;
23573;SDS011;11965;53.640;10.050;2023-08-12T03:51:30;5.46;;;5.46;;
23573;SDS011;11965;53.640;10.050;2023-08-12T03:53:58;5.49;;;5.49;;
23573;SDS011;11965;53.640;10.050;2023-08-12T03:56:26;4.99;;;4.99;;
23573;SDS011;11965;53.640;10.050;2023-08-12T03:58:53;5.10;;;5.10;;
23573;SDS011;11965;53.640;10.050;2023-08-12T04:01:21;5.01;;;5.01;;
23573;SDS011;11965;53.640;10.050;2023-08-12T04:03:49;4.87;;;4.87;;
23573;SDS011;11965;53.640;10.050;2023-08-12T04:06:17;4.97;;;4.97;;
23573;SDS011;11965;53.640;10.050;2023-08-12T04:08:44;5.07;;;5.07;;
23573;SDS011;11965;53.640;10.050;2023-08-12T04:11:12;5.23;;;5.23;;
23573;SDS011;11965;53.640;10.050;2023-08-12T04:13:40;5.34;;;5.34;;
23573;SDS011;11965;53.640;10.050;2023-08-12T04:16:07;5.56;;;5.56;;
23573;SDS011;11965;53.640;10.050;2023-08-12T04:18:33;5.40;;;5.40;;
23573;SDS011;11965;53.640;10.050;2023-08-12T04:21:00;5.44;;;5.44;;
23573;SDS011;11965;53.640;10.050;2023-08-12T04:23:27;5.32;;;5.32;;
23573;SDS011;11965;53.640;10.050;2023-08-12T04:25:54;5.37;;;5.37;;
23573;SDS011;11965;53.640;10.050;2023-08-12T04:28:26;5.54;;;5.54;;
23573;SDS011;11965;53.640;10.050;2023-08-12T04:30:53;5.54;;;5.54;;
23573;SDS011;11965;53.640;10.050;2023-08-12T04:33:22;5.28;;;5.28;;
23573;SDS011;11965;53.640;10.050;2023-08-12T04:35:49;5.32;;;5.32;;
23573;SDS011;11965;53.640;10.050;2023-08-12T04:38:18;4.98;;;4.98;;
23573;SDS011;11965;53.640;10.050;2023-08-12T04:40:48;4.91;;;4.91;;
23573;SDS011;11965;53.640;10.050;2023-08-12T04:43:15;5.14;;;5.14;;
23573;SDS011;11965;53.640;10.050;2023-08-12T04:45:45;4.99;;;4.99;;
23573;SDS011;11965;53.640;10.050;2023-08-12T04:48:13;4.94;;;4.94;;
23573;SDS011;11965;53.640;10.050;2023-08-12T04:50:41;5.06;;;5.06;;
23573;SDS011;11965;53.640;10.050;2023-08-12T04:53:08;5.30;;;5.30;;
23573;SDS011;11965;53.640;10.050;2023-08-12T04:55:35;5.29;;;5.29;;
23573;SDS011;11965;53.640;10.050;2023-08-12T04:58:02;5.00;;;5.00;;
23573;SDS011;11965;53.640;10.050;2023-08-12T05:00:30;5.16;;;5.16;;
23573;SDS011;11965;53.640;10.050;2023-08-12T05:02:59;5.00;;;5.00;;
23573;SDS011;11965;53.640;10.050;2023-08-12T05:05:26;5.15;;;5.15;;
23573;SDS011;11965;53.640;10.050;2023-08-12T05:07:53;5.28;;;5.28;;
23573;SDS011;11965;53.640;10.050;2023-08-12T05:10:20;5.25;;;5.25;;
23573;SDS011;11965;53.640;10.050;2023-08-12T05:12:47;5.05;;;5.05;;
23573;SDS011;11965;53.640;10.050;2023-08-12T05:15:15;5.18;;;5.18;;
23573;SDS011;11965;53.640;10.050;2023-08-12T05:17:42;4.81;;;4.81;;
23573;SDS011;11965;53.640;10.050;2023-08-12T05:20:12;4.81;;;4.81;;
23573;SDS011;11965;53.640;10.050;2023-08-12T05:22:40;5.09;;;5.09;;
23573;SDS011;11965;53.640;10.050;2023-08-12T05:25:07;4.78;;;4.78;;
23573;SDS011;11965;53.640;10.050;2023-08-12T05:27:34;5.05;;;5.05;;
23573;SDS011;11965;53.640;10.050;2023-08-12T05:30:01;5.45;;;5.45;;
23573;SDS011;11965;53.640;10.050;2023-08-12T05:32:28;5.44;;;5.44;;
23573;SDS011;11965;53.640;10.050;2023-08-12T05:34:55;5.06;;;5.06;;
23573;SDS011;11965;53.640;10.050;2023-08-12T05:37:23;5.30;;;5.30;;
23573;SDS011;11965;53.640;10.050;2023-08-12T05:39:50;5.30;;;5.30;;
23573;SDS011;11965;53.640;10.050;2023-08-12T05:42:16;5.30;;;5.30;;
23573;SDS011;11965;53.640;10.050;2023-08-12T05:44:43;5.44;;;5.44;;
23573;SDS011;11965;53.640;10.050;2023-08-12T05:47:10;5.54;;;5.54;;
23573;SDS011;11965;53.640;10.050;2023-08-12T05:49:37;5.46;;;5.46;;
23573;SDS011;11965;53.640;10.050;2023-08-12T05:52:04;5.45;;;5.45;;
23573;SDS011;11965;53.640;10.050;2023-08-12T05:54:33;5.57;;;5.57;;
23573;SDS011;11965;53.640;10.050;2023-08-12T05:57:00;5.49;;;5.49;;
23573;SDS011;11965;53.640;10.050;2023-08-12T05:59:26;5.38;;;5.38;;
23573;SDS011;11965;53.640;10.050;2023-08-12T06:01:53;5.80;;;5.80;;
23573;SDS011;11965;53.640;10.050;2023-08-12T06:04:20;5.71;;;5.71;;
23573;SDS011;11965;53.640;10.050;2023-08-12T06:06:47;5.29;;;5.29;;
23573;SDS011;11965;53.640;10.050;2023-08-12T06:09:14;5.86;;;5.86;;
23573;SDS011;11965;53.640;10.050;2023-08-12T06:11:42;5.68;;;5.68;;
23573;SDS011;11965;53.640;10.050;2023-08-12T06:14:09;5.98;;;5.98;;
23573;SDS011;11965;53.640;10.050;2023-08-12T06:16:36;5.61;;;5.61;;
23573;SDS011;11965;53.640;10.050;2023-08-12T06:19:03;5.77;;;5.77;;
23573;SDS011;11965;53.640;10.050;2023-08-12T06:21:30;5.97;;;5.97;;
23573;SDS011;11965;53.640;10.050;2023-08-12T06:23:57;6.16;;;6.16;;
23573;SDS011;11965;53.640;10.050;2023-08-12T06:26:24;6.21;;;6.21;;
23573;SDS011;11965;53.640;10.050;2023-08-12T06:28:52;6.24;;;6.24;;
23573;SDS011;11965;53.640;10.050;2023-08-12T06:31:18;6.16;;;6.16;;
23573;SDS011;11965;53.640;10.050;2023-08-12T06:33:45;5.83;;;5.83;;
23573;SDS011;11965;53.640;10.050;2023-08-12T06:36:12;6.06;;;6.06;;
23573;SDS011;11965;53.640;10.050;2023-08-12T06:38:39;6.44;;;6.44;;
23573;SDS011;11965;53.640;10.050;2023-08-12T06:41:06;6.37;;;6.37;;
23573;SDS011;11965;53.640;10.050;2023-08-12T06:43:33;6.53;;;6.53;;
23573;SDS011;11965;53.640;10.050;2023-08-12T06:46:01;6.71;;;6.71;;
23573;SDS011;11965;53.640;10.050;2023-08-12T06:48:28;6.29;;;6.29;;
23573;SDS011;11965;53.640;10.050;2023-08-12T06:50:55;6.82;;;6.82;;
23573;SDS011;11965;53.640;10.050;2023-08-12T06:53:22;6.89;;;6.89;;
23573;SDS011;11965;53.640;10.050;2023-08-12T06:55:50;6.78;;;6.78;;
23573;SDS011;11965;53.640;10.050;2023-08-12T06:58:17;6.51;;;6.51;;
23573;SDS011;11965;53.640;10.050;2023-08-12T07:00:44;6.75;;;6.75;;
23573;SDS011;11965;53.640;10.050;2023-08-12T07:03:12;6.71;;;6.71;;
23573;SDS011;11965;53.640;10.050;2023-08-12T07:05:39;6.77;;;6.76;;
23573;SDS011;11965;53.640;10.050;2023-08-12T07:08:06;7.44;;;7.44;;
23573;SDS011;11965;53.640;10.050;2023-08-12T07:10:33;7.48;;;7.48;;
23573;SDS011;11965;53.640;10.050;2023-08-12T07:12:59;7.51;;;7.51;;
23573;SDS011;11965;53.640;10.050;2023-08-12T07:15:26;7.60;;;7.60;;
23573;SDS011;11965;53.640;10.050;2023-08-12T07:17:53;7.91;;;7.91;;
23573;SDS011;11965;53.640;10.050;2023-08-12T07:20:21;7.58;;;7.58;;
23573;SDS011;11965;53.640;10.050;2023-08-12T07:22:48;8.57;;;8.57;;
23573;SDS011;11965;53.640;10.050;2023-08-12T07:25:15;9.14;;;9.14;;
23573;SDS011;11965;53.640;10.050;2023-08-12T07:27:42;9.56;;;9.56;;
23573;SDS011;11965;53.640;10.050;2023-08-12T07:30:09;10.06;;;10.06;;
23573;SDS011;11965;53.640;10.050;2023-08-12T07:32:36;10.11;;;10.11;;
23573;SDS011;11965;53.640;10.050;2023-08-12T07:35:07;9.69;;;9.69;;
23573;SDS011;11965;53.640;10.050;2023-08-12T07:37:36;9.86;;;9.86;;
23573;SDS011;11965;53.640;10.050;2023-08-12T07:40:03;9.60;;;9.60;;
23573;SDS011;11965;53.640;10.050;2023-08-12T07:42:30;9.87;;;9.87;;
23573;SDS011;11965;53.640;10.050;2023-08-12T07:44:57;10.12;;;10.12;;
23573;SDS011;11965;53.640;10.050;2023-08-12T07:47:24;10.06;;;10.06;;
23573;SDS011;11965;53.640;10.050;2023-08-12T07:49:51;10.44;;;10.44;;
23573;SDS011;11965;53.640;10.050;2023-08-12T07:52:20;10.19;;;10.19;;
23573;SDS011;11965;53.640;10.050;2023-08-12T07:54:48;11.08;;;11.08;;
23573;SDS011;11965;53.640;10.050;2023-08-12T07:57:16;11.45;;;11.45;;
23573;SDS011;11965;53.640;10.050;2023-08-12T07:59:42;10.63;;;10.63;;
23573;SDS011;11965;53.640;10.050;2023-08-12T08:02:09;11.39;;;11.39;;
23573;SDS011;11965;53.640;10.050;2023-08-12T08:04:36;10.77;;;10.77;;
23573;SDS011;11965;53.640;10.050;2023-08-12T08:07:03;10.42;;;10.42;;
23573;SDS011;11965;53.640;10.050;2023-08-12T08:09:30;10.49;;;10.49;;
23573;SDS011;11965;53.640;10.050;2023-08-12T08:11:59;10.14;;;10.14;;
23573;SDS011;11965;53.640;10.050;2023-08-12T08:14:26;9.82;;;9.82;;
23573;SDS011;11965;53.640;10.050;2023-08-12T08:16:53;10.08;;;10.08;;
23573;SDS011;11965;53.640;10.050;2023-08-12T08:19:20;9.93;;;9.93;;
23573;SDS011;11965;53.640;10.050;2023-08-12T08:21:47;9.70;;;9.70;;
23573;SDS011;11965;53.640;10.050;2023-08-12T08:24:14;9.54;;;9.54;;
23573;SDS011;11965;53.640;10.050;2023-08-12T08:26:41;9.82;;;9.82;;
23573;SDS011;11965;53.640;10.050;2023-08-12T08:29:09;9.68;;;9.68;;
23573;SDS011;11965;53.640;10.050;2023-08-12T08:31:36;9.18;;;9.18;;
23573;SDS011;11965;53.640;10.050;2023-08-12T08:34:02;9.64;;;9.64;;
23573;SDS011;11965;53.640;10.050;2023-08-12T08:36:30;9.49;;;9.49;;
23573;SDS011;11965;53.640;10.050;2023-08-12T08:38:57;9.44;;;9.44;;
23573;SDS011;11965;53.640;10.050;2023-08-12T08:41:24;9.67;;;9.67;;
23573;SDS011;11965;53.640;10.050;2023-08-12T08:43:56;8.69;;;8.69;;
23573;SDS011;11965;53.640;10.050;2023-08-12T08:46:30;9.21;;;9.21;;
23573;SDS011;11965;53.640;10.050;2023-08-12T08:48:58;9.08;;;9.08;;
23573;SDS011;11965;53.640;10.050;2023-08-12T08:51:26;9.33;;;9.33;;
23573;SDS011;11965;53.640;10.050;2023-08-12T08:53:55;9.07;;;9.07;;
23573;SDS011;11965;53.640;10.050;2023-08-12T08:56:24;8.44;;;8.44;;
23573;SDS011;11965;53.640;10.050;2023-08-12T08:58:51;8.67;;;8.67;;
23573;SDS011;11965;53.640;10.050;2023-08-12T09:01:19;9.05;;;9.05;;
23573;SDS011;11965;53.640;10.050;2023-08-12T09:03:49;8.23;;;8.23;;
23573;SDS011;11965;53.640;10.050;2023-08-12T09:06:19;8.16;;;8.16;;
23573;SDS011;11965;53.640;10.050;2023-08-12T09:08:48;7.57;;;7.57;;
23573;SDS011;11965;53.640;10.050;2023-08-12T09:11:18;7.30;;;7.30;;
23573;SDS011;11965;53.640;10.050;2023-08-12T09:13:46;7.31;;;7.31;;
23573;SDS011;11965;53.640;10.050;2023-08-12T09:16:13;7.26;;;7.26;;
23573;SDS011;11965;53.640;10.050;2023-08-12T09:18:42;7.75;;;7.75;;
23573;SDS011;11965;53.640;10.050;2023-08-12T09:21:11;7.19;;;7.19;;
23573;SDS011;11965;53.640;10.050;2023-08-12T09:23:38;7.43;;;7.43;;
23573;SDS011;11965;53.640;10.050;2023-08-12T09:26:13;7.08;;;7.08;;
23573;SDS011;11965;53.640;10.050;2023-08-12T09:28:42;6.93;;;6.93;;
23573;SDS011;11965;53.640;10.050;2023-08-12T09:31:11;6.43;;;6.43;;
23573;SDS011;11965;53.640;10.050;2023-08-12T09:33:50;6.66;;;6.66;;
23573;SDS011;11965;53.640;10.050;2023-08-12T09:36:20;7.40;;;7.40;;
23573;SDS011;11965;53.640;10.050;2023-08-12T09:38:47;7.14;;;7.14;;
23573;SDS011;11965;53.640;10.050;2023-08-12T09:41:14;7.18;;;7.18;;
23573;SDS011;11965;53.640;10.050;2023-08-12T09:43:42;6.72;;;6.72;;
23573;SDS011;11965;53.640;10.050;2023-08-12T09:46:10;6.45;;;6.45;;
23573;SDS011;11965;53.640;10.050;2023-08-12T09:48:38;8.15;;;8.15;;
23573;SDS011;11965;53.640;10.050;2023-08-12T09:51:05;6.56;;;6.56;;
23573;SDS011;11965;53.640;10.050;2023-08-12T09:53:34;6.24;;;6.24;;
23573;SDS011;11965;53.640;10.050;2023-08-12T09:56:04;6.68;;;6.68;;
23573;SDS011;11965;53.640;10.050;2023-08-12T09:58:33;9.13;;;9.13;;
23573;SDS011;11965;53.640;10.050;2023-08-12T10:01:02;7.77;;;7.77;;
23573;SDS011;11965;53.640;10.050;2023-08-12T10:03:31;7.20;;;7.20;;
23573;SDS011;11965;53.640;10.050;2023-08-12T10:06:00;7.40;;;7.40;;
23573;SDS011;11965;53.640;10.050;2023-08-12T10:08:28;7.75;;;7.75;;
23573;SDS011;11965;53.640;10.050;2023-08-12T10:10:57;8.54;;;8.54;;
23573;SDS011;11965;53.640;10.050;2023-08-12T10:13:25;8.13;;;8.13;;
23573;SDS011;11965;53.640;10.050;2023-08-12T10:15:52;8.94;;;8.94;;
23573;SDS011;11965;53.640;10.050;2023-08-12T10:18:19;8.88;;;8.88;;
23573;SDS011;11965;53.640;10.050;2023-08-12T10:20:48;7.87;;;7.87;;
23573;SDS011;11965;53.640;10.050;2023-08-12T10:23:17;7.33;;;7.33;;
23573;SDS011;11965;53.640;10.050;2023-08-12T10:25:44;7.80;;;7.80;;
23573;SDS011;11965;53.640;10.050;2023-08-12T10:28:13;7.57;;;7.57;;
23573;SDS011;11965;53.640;10.050;2023-08-12T10:30:40;7.92;;;7.92;;
23573;SDS011;11965;53.640;10.050;2023-08-12T10:33:08;9.29;;;9.29;;
23573;SDS011;11965;53.640;10.050;2023-08-12T10:35:42;8.89;;;8.89;;
23573;SDS011;11965;53.640;10.050;2023-08-12T10:38:11;9.17;;;9.17;;
23573;SDS011;11965;53.640;10.050;2023-08-12T10:40:40;8.58;;;8.58;;
23573;SDS011;11965;53.640;10.050;2023-08-12T10:43:08;9.16;;;9.16;;
23573;SDS011;11965;53.640;10.050;2023-08-12T10:45:43;9.20;;;9.20;;
23573;SDS011;11965;53.640;10.050;2023-08-12T10:48:16;9.16;;;9.16;;
23573;SDS011;11965;53.640;10.050;2023-08-12T10:50:45;9.51;;;9.51;;
23573;SDS011;11965;53.640;10.050;2023-08-12T10:53:24;9.49;;;9.49;;
23573;SDS011;11965;53.640;10.050;2023-08-12T10:55:57;9.40;;;9.40;;
23573;SDS011;11965;53.640;10.050;2023-08-12T10:58:29;9.21;;;9.21;;
23573;SDS011;11965;53.640;10.050;2023-08-12T11:01:02;9.41;;;9.41;;
23573;SDS011;11965;53.640;10.050;2023-08-12T11:03:31;9.20;;;9.20;;
23573;SDS011;11965;53.640;10.050;2023-08-12T11:05:59;10.80;;;10.80;;
23573;SDS011;11965;53.640;10.050;2023-08-12T11:08:27;10.20;;;10.20;;
23573;SDS011;11965;53.640;10.050;2023-08-12T11:10:55;10.48;;;10.48;;
23573;SDS011;11965;53.640;10.050;2023-08-12T11:13:26;10.28;;;10.28;;
23573;SDS011;11965;53.640;10.050;2023-08-12T11:15:56;10.09;;;10.09;;
23573;SDS011;11965;53.640;10.050;2023-08-12T11:18:34;9.62;;;9.62;;
23573;SDS011;11965;53.640;10.050;2023-08-12T11:21:01;9.19;;;9.19;;
23573;SDS011;11965;53.640;10.050;2023-08-12T11:23:28;9.34;;;9.34;;
23573;SDS011;11965;53.640;10.050;2023-08-12T11:25:56;9.56;;;9.56;;
23573;SDS011;11965;53.640;10.050;2023-08-12T11:28:24;9.53;;;9.53;;
23573;SDS011;11965;53.640;10.050;2023-08-12T11:30:51;9.62;;;9.62;;
23573;SDS011;11965;53.640;10.050;2023-08-12T11:33:19;9.40;;;9.40;;
23573;SDS011;11965;53.640;10.050;2023-08-12T11:35:47;9.21;;;9.21;;
23573;SDS011;11965;53.640;10.050;2023-08-12T11:38:14;8.86;;;8.86;;
23573;SDS011;11965;53.640;10.050;2023-08-12T11:40:42;8.66;;;8.66;;
23573;SDS011;11965;53.640;10.050;2023-08-12T11:43:09;8.32;;;8.32;;
23573;SDS011;11965;53.640;10.050;2023-08-12T11:45:36;8.09;;;8.09;;
23573;SDS011;11965;53.640;10.050;2023-08-12T11:48:04;7.94;;;7.94;;
23573;SDS011;11965;53.640;10.050;2023-08-12T11:50:32;7.88;;;7.88;;
23573;SDS011;11965;53.640;10.050;2023-08-12T11:53:00;7.47;;;7.47;;
23573;SDS011;11965;53.640;10.050;2023-08-12T11:55:27;7.72;;;7.72;;
23573;SDS011;11965;53.640;10.050;2023-08-12T11:57:54;8.28;;;8.28;;
23573;SDS011;11965;53.640;10.050;2023-08-12T12:00:21;8.61;;;8.61;;
23573;SDS011;11965;53.640;10.050;2023-08-12T12:02:49;8.15;;;8.15;;
23573;SDS011;11965;53.640;10.050;2023-08-12T12:05:17;8.67;;;8.67;;
23573;SDS011;11965;53.640;10.050;2023-08-12T12:07:50;8.72;;;8.72;;
23573;SDS011;11965;53.640;10.050;2023-08-12T12:10:18;7.92;;;7.92;;
23573;SDS011;11965;53.640;10.050;2023-08-12T12:12:45;8.15;;;8.15;;
23573;SDS011;11965;53.640;10.050;2023-08-12T12:15:12;8.47;;;8.47;;
23573;SDS011;11965;53.640;10.050;2023-08-12T12:17:40;8.76;;;8.76;;
23573;SDS011;11965;53.640;10.050;2023-08-12T12:20:07;8.92;;;8.92;;
23573;SDS011;11965;53.640;10.050;2023-08-12T12:22:37;9.11;;;9.11;;
23573;SDS011;11965;53.640;10.050;2023-08-12T12:25:09;7.96;;;7.96;;
23573;SDS011;11965;53.640;10.050;2023-08-12T12:27:37;7.95;;;7.95;;
23573;SDS011;11965;53.640;10.050;2023-08-12T12:30:07;8.17;;;8.17;;
23573;SDS011;11965;53.640;10.050;2023-08-12T12:32:34;8.11;;;8.11;;
23573;SDS011;11965;53.640;10.050;2023-08-12T12:35:01;8.99;;;8.99;;
23573;SDS011;11965;53.640;10.050;2023-08-12T12:37:28;8.86;;;8.86;;
23573;SDS011;11965;53.640;10.050;2023-08-12T12:39:55;8.79;;;8.79;;
23573;SDS011;11965;53.640;10.050;2023-08-12T12:42:24;8.64;;;8.64;;
23573;SDS011;11965;53.640;10.050;2023-08-12T12:44:51;8.96;;;8.96;;
23573;SDS011;11965;53.640;10.050;2023-08-12T12:47:18;8.95;;;8.95;;
23573;SDS011;11965;53.640;10.050;2023-08-12T12:49:45;9.92;;;9.92;;
23573;SDS011;11965;53.640;10.050;2023-08-12T12:52:12;10.50;;;10.50;;
23573;SDS011;11965;53.640;10.050;2023-08-12T12:54:39;11.20;;;11.20;;
23573;SDS011;11965;53.640;10.050;2023-08-12T12:57:05;10.61;;;10.61;;
23573;SDS011;11965;53.640;10.050;2023-08-12T12:59:34;10.41;;;10.41;;
23573;SDS011;11965;53.640;10.050;2023-08-12T13:02:00;11.28;;;11.28;;
23573;SDS011;11965;53.640;10.050;2023-08-12T13:04:27;15.15;;;15.15;;
23573;SDS011;11965;53.640;10.050;2023-08-12T13:06:54;14.45;;;14.45;;
23573;SDS011;11965;53.640;10.050;2023-08-12T13:09:21;23.10;;;23.10;;
23573;SDS011;11965;53.640;10.050;2023-08-12T13:11:48;9.85;;;9.85;;
23573;SDS011;11965;53.640;10.050;2023-08-12T13:14:15;9.17;;;9.17;;
23573;SDS011;11965;53.640;10.050;2023-08-12T13:16:47;9.28;;;9.28;;
23573;SDS011;11965;53.640;10.050;2023-08-12T13:19:14;9.73;;;9.73;;
23573;SDS011;11965;53.640;10.050;2023-08-12T13:21:41;10.69;;;10.69;;
23573;SDS011;11965;53.640;10.050;2023-08-12T13:24:11;11.11;;;11.11;;
23573;SDS011;11965;53.640;10.050;2023-08-12T13:26:37;11.06;;;11.06;;
23573;SDS011;11965;53.640;10.050;2023-08-12T13:29:04;11.72;;;11.72;;
23573;SDS011;11965;53.640;10.050;2023-08-12T13:31:31;12.41;;;12.41;;
23573;SDS011;11965;53.640;10.050;2023-08-12T13:33:59;12.52;;;12.52;;
23573;SDS011;11965;53.640;10.050;2023-08-12T13:36:26;12.23;;;12.23;;
23573;SDS011;11965;53.640;10.050;2023-08-12T13:38:53;11.46;;;11.46;;
23573;SDS011;11965;53.640;10.050;2023-08-12T13:41:20;11.63;;;11.63;;
23573;SDS011;11965;53.640;10.050;2023-08-12T13:43:47;11.55;;;11.55;;
23573;SDS011;11965;53.640;10.050;2023-08-12T13:46:14;11.08;;;11.08;;
23573;SDS011;11965;53.640;10.050;2023-08-12T13:48:40;11.75;;;11.75;;
23573;SDS011;11965;53.640;10.050;2023-08-12T13:51:09;12.00;;;12.00;;
23573;SDS011;11965;53.640;10.050;2023-08-12T13:53:36;11.29;;;11.29;;
23573;SDS011;11965;53.640;10.050;2023-08-12T13:56:03;11.58;;;11.58;;
23573;SDS011;11965;53.640;10.050;2023-08-12T13:58:30;11.12;;;11.12;;
23573;SDS011;11965;53.640;10.050;2023-08-12T14:00:57;11.26;;;11.26;;
23573;SDS011;11965;53.640;10.050;2023-08-12T14:03:24;10.41;;;10.41;;
23573;SDS011;11965;53.640;10.050;2023-08-12T14:05:51;9.72;;;9.72;;
23573;SDS011;11965;53.640;10.050;2023-08-12T14:08:19;10.29;;;10.29;;
23573;SDS011;11965;53.640;10.050;2023-08-12T14:10:46;10.28;;;10.28;;
23573;SDS011;11965;53.640;10.050;2023-08-12T14:13:13;9.99;;;9.99;;
23573;SDS011;11965;53.640;10.050;2023-08-12T14:15:40;10.38;;;10.38;;
23573;SDS011;11965;53.640;10.050;2023-08-12T14:18:07;10.54;;;10.54;;
23573;SDS011;11965;53.640;10.050;2023-08-12T14:20:34;10.27;;;10.27;;
23573;SDS011;11965;53.640;10.050;2023-08-12T14:23:01;10.15;;;10.15;;
23573;SDS011;11965;53.640;10.050;2023-08-12T14:25:29;10.12;;;10.12;;
23573;SDS011;11965;53.640;10.050;2023-08-12T14:27:56;10.28;;;10.28;;
23573;SDS011;11965;53.640;10.050;2023-08-12T14:30:23;10.13;;;10.13;;
23573;SDS011;11965;53.640;10.050;2023-08-12T14:32:51;10.09;;;10.09;;
23573;SDS011;11965;53.640;10.050;2023-08-12T14:35:18;9.60;;;9.60;;